Date,TemperatureHighF,TemperatureAvgF,TemperatureLowF,DewpointHighF,DewpointAvgF,DewpointLowF,HumidityHigh,HumidityAvg,HumidityLow,PressureMaxIn,PressureMinIn,WindSpeedMaxMPH,WindSpeedAvgMPH,GustSpeedMaxMPH,PrecipitationSumIn
2013-1-1,37,33,24,36,30,19,97,91,81,30.25,30.06,15,4,15,0.00
2013-1-2,34,25,19,20,18,14,92,75,48,30.33,30.23,8,1,8,0.00
2013-1-3,41,26,16,30,22,14,94,83,59,30.46,30.27,10,1,13,0.00
2013-1-4,44,31,20,33,25,18,96,80,51,30.50,30.40,16,2,16,0.00
2013-1-5,43,35,22,33,29,20,96,79,64,30.42,30.24,9,1,9,0.00
2013-1-6,43,34,22,35,29,20,95,83,67,30.43,30.17,15,2,15,0.00
2013-1-7,47,30,18,29,24,17,96,79,46,30.51,30.25,13,1,13,0.00
2013-1-8,56,40,24,36,31,21,93,72,43,30.32,30.20,12,1,12,0.00
2013-1-9,56,49,43,48,43,35,94,79,63,30.44,30.25,14,2,14,0.01
2013-1-10,66,56,45,62,53,38,96,91,64,30.43,29.88,21,4,21,2.04
2013-1-11,64,58,52,60,53,48,94,84,65,30.01,29.89,17,3,17,0.38
2013-1-12,70,66,59,65,63,56,96,91,84,29.97,29.69,22,4,22,0.37
2013-1-13,63,36,26,58,34,22,96,92,85,30.33,29.74,16,4,16,3.07
2013-1-14,28,25,22,23,21,18,90,84,77,30.47,30.32,16,5,16,0.00
2013-1-15,32,27,22,28,24,20,94,87,73,30.37,30.11,17,4,17,0.00
2013-1-16,33,30,28,28,27,26,95,86,78,30.19,30.08,7,1,7,0.00
2013-1-17,47,34,24,37,29,22,96,82,66,30.51,30.13,18,2,18,0.11
2013-1-18,50,36,21,31,26,19,96,68,44,30.59,30.32,14,2,14,0.00
2013-1-19,57,47,36,36,32,27,73,57,43,30.32,30.07,21,5,21,0.00
2013-1-20,46,38,28,35,26,18,93,63,35,30.32,30.14,16,2,16,0.00
2013-1-21,35,28,23,20,15,8,79,59,41,30.38,30.24,16,3,16,0.00
2013-1-22,25,22,18,8,4,-1,62,46,34,30.51,30.38,11,2,11,0.00
2013-1-23,47,31,15,31,21,7,92,67,48,30.41,30.17,13,2,13,0.00
2013-1-24,34,29,22,29,14,8,83,55,39,30.58,30.28,23,6,23,0.00
2013-1-25,40,31,26,30,25,9,93,77,40,30.29,30.14,11,1,11,0.02
2013-1-26,46,34,25,31,25,20,95,72,44,30.39,30.27,10,1,10,0.00
2013-1-27,41,34,28,39,30,22,94,85,75,30.35,30.20,10,2,10,0.14
2013-1-29,72,67,54,63,60,52,95,80,72,29.93,29.42,30,8,30,0.54
2013-1-30,57,46,33,52,41,21,97,81,61,29.95,29.43,32,8,32,0.94
2013-1-31,42,33,21,32,24,9,94,68,52,30.35,29.95,22,7,22,0.01
2013-2-1,28,21,13,16,10,4,70,62,48,30.57,30.35,18,3,18,0.00
2013-2-2,41,34,24,32,24,16,85,68,53,30.36,30.11,17,3,17,0.00
2013-2-3,43,36,28,32,27,21,86,70,45,30.19,30.02,23,3,23,0.00
2013-2-4,50,40,28,41,33,23,91,77,44,30.13,29.90,17,3,17,0.04
2013-2-5,55,43,37,42,38,35,95,83,53,30.10,29.94,13,2,13,0.00
2013-2-6,53,42,29,38,32,27,96,71,44,30.28,30.10,10,2,10,0.00
2013-2-7,66,48,36,51,37,30,84,67,53,30.11,29.91,14,2,14,0.00
2013-2-8,44,39,33,38,32,28,88,79,66,30.39,30.09,17,5,17,0.03
2013-2-9,50,40,32,34,30,27,83,69,50,30.41,30.07,13,3,13,0.00
2013-2-10,56,53,47,54,45,32,93,77,55,30.07,29.73,30,6,30,0.37
2013-2-11,55,46,35,53,33,29,93,61,43,30.17,29.87,15,4,15,0.00
2013-2-12,49,41,27,34,31,26,96,70,49,30.18,29.88,11,1,11,0.00
2013-2-13,46,40,37,38,36,34,94,86,66,29.97,29.83,15,3,15,0.19
2013-2-14,59,46,36,42,38,34,93,75,50,30.04,29.94,15,3,15,0.00
2013-2-15,46,39,28,35,28,16,91,65,36,30.25,30.04,16,2,16,0.00
2013-2-16,37,29,22,21,16,8,87,60,31,30.25,30.19,16,2,16,0.00
2013-2-17,48,34,18,27,20,12,87,58,37,30.28,30.08,12,2,12,0.00
2013-2-18,61,49,39,48,38,24,93,68,34,30.09,29.72,26,7,31,0.88
2013-2-19,44,38,29,39,22,12,84,56,33,30.31,29.87,24,7,24,0.00
2013-2-20,33,28,24,19,16,13,75,63,49,30.41,30.29,12,2,12,0.00
2013-2-21,38,31,25,37,25,18,95,78,54,30.32,29.84,20,4,20,1.07
2013-2-22,43,39,34,40,36,28,97,87,78,30.08,29.83,14,4,14,0.01
2013-2-23,45,35,26,30,26,23,88,72,50,30.09,29.98,10,1,10,0.00
2013-2-24,52,37,22,29,26,21,95,67,39,30.17,30.02,12,2,12,0.00
2013-2-25,59,47,34,41,30,26,85,54,30,30.05,29.47,21,5,21,0.17
2013-2-26,50,44,38,48,41,34,96,87,77,29.69,29.35,22,5,22,0.64
2013-2-27,39,37,34,35,32,29,90,82,68,29.92,29.69,17,6,17,0.03
2013-2-28,38,35,33,32,30,27,93,81,72,30.10,29.91,13,4,13,0.00
2013-3-1,39,34,31,35,32,29,96,92,81,30.14,30.06,13,3,13,0.10
2013-3-2,33,31,30,29,26,19,93,81,61,30.23,30.11,15,3,15,0.00
2013-3-3,41,33,20,27,21,17,91,63,41,30.23,30.11,13,1,13,0.01
2013-3-4,59,47,36,42,29,22,81,51,35,30.12,29.80,21,3,21,0.02
2013-3-5,48,40,33,46,35,21,97,83,57,30.08,29.75,28,7,28,0.19
2013-3-6,43,36,30,30,27,24,82,68,55,30.35,30.08,20,5,20,0.00
2013-3-7,47,35,25,32,28,22,92,74,53,30.43,30.33,11,1,11,0.00
2013-3-8,56,41,27,32,29,25,94,65,35,30.46,30.26,15,2,15,0.00
2013-3-9,68,54,41,38,33,30,67,47,27,30.27,29.95,19,3,19,0.00
2013-3-10,67,58,50,55,46,37,97,65,43,29.95,29.70,28,6,28,0.55
2013-3-11,53,42,38,52,37,30,95,82,73,30.02,29.74,20,6,20,0.00
2013-3-12,51,40,27,32,28,20,96,64,37,30.20,30.02,16,3,16,0.00
2013-3-13,44,37,26,29,22,18,81,57,40,30.44,30.20,21,4,21,0.00
2013-3-14,46,34,22,36,27,20,94,77,43,30.45,30.16,10,1,10,0.07
2013-3-15,75,56,32,52,42,28,87,62,40,30.16,29.78,16,3,16,0.00
2013-3-16,70,60,45,53,47,39,80,62,53,29.98,29.75,24,6,24,0.00
2013-3-17,45,42,38,43,40,37,96,92,80,30.07,29.72,18,5,18,0.64
2013-3-18,51,45,36,47,42,35,97,91,74,30.01,29.65,20,3,20,0.77
2013-3-19,52,41,31,37,25,14,97,58,23,30.22,30.01,13,2,13,0.00
2013-3-20,45,36,28,32,25,16,90,66,45,30.23,30.10,18,4,18,0.00
2013-3-21,41,32,19,22,18,14,91,58,39,30.14,30.00,12,2,12,0.00
2013-3-22,42,38,34,28,24,21,62,56,48,30.06,29.98,9,2,9,0.00
2013-3-23,56,47,40,43,34,26,92,62,49,30.01,29.74,14,3,14,0.11
2013-3-24,46,40,34,44,38,29,96,90,82,29.77,29.46,28,7,28,0.14
2013-3-25,38,34,32,31,28,25,94,79,67,30.19,29.77,27,10,27,0.00
2013-3-26,42,35,27,31,28,24,93,76,54,30.38,30.19,13,3,13,0.01
2013-3-27,50,37,22,34,26,21,95,68,41,30.43,30.33,12,1,12,0.00
2013-3-28,60,48,39,38,34,30,79,59,38,30.39,30.26,9,1,9,0.00
2013-3-29,57,50,44,49,45,37,96,83,61,30.28,30.18,13,2,13,0.86
2013-3-30,55,49,40,49,46,39,97,90,71,30.21,29.92,12,2,12,0.52
2013-3-31,63,54,49,52,49,46,98,86,59,29.97,29.87,10,1,10,0.00
2013-4-1,56,48,37,47,36,27,97,64,39,30.20,29.91,15,4,15,0.00
2013-4-2,47,41,35,29,25,20,75,54,35,30.33,30.20,13,2,13,0.00
2013-4-3,53,43,29,27,24,19,80,49,29,30.36,30.21,19,3,19,0.00
2013-4-4,52,46,42,42,32,24,92,61,44,30.21,30.02,10,2,10,0.02
2013-4-5,70,52,33,41,36,28,97,61,28,30.15,30.05,14,2,14,0.00
2013-4-6,75,60,43,43,40,37,85,51,26,30.10,29.88,23,3,25,0.00
2013-4-7,73,65,61,57,51,43,74,61,50,29.99,29.91,18,4,18,0.00
2013-4-8,75,68,60,58,55,51,78,64,53,29.94,29.86,25,4,25,0.00
2013-4-9,80,71,64,65,61,55,82,71,59,30.02,29.87,17,4,17,0.00
2013-4-10,84,77,69,67,64,61,85,66,51,29.93,29.68,22,6,22,0.04
2013-4-11,69,54,46,64,51,37,96,91,71,29.77,29.61,17,4,17,1.92
2013-4-12,60,48,37,42,38,34,92,68,42,30.06,29.76,25,4,25,0.00
2013-4-13,67,51,34,43,38,32,95,63,36,30.12,29.96,9,1,9,0.00
2013-4-14,75,63,52,53,46,42,70,55,36,29.96,29.77,23,4,23,0.00
2013-4-15,82,70,57,62,57,51,86,66,46,29.94,29.83,16,3,16,0.00
2013-4-16,82,74,67,72,66,60,91,79,64,30.05,29.90,16,3,16,0.02
2013-4-17,86,75,62,71,66,61,98,76,54,30.08,29.83,17,3,17,0.00
2013-4-18,82,72,45,67,62,44,97,73,52,29.84,29.60,29,7,29,1.40
2013-4-19,50,44,37,44,34,30,95,70,51,30.11,29.71,20,6,20,0.04
2013-4-20,61,48,32,41,35,31,96,64,35,30.33,30.11,8,1,12,0.00
2013-4-21,66,53,40,38,34,30,74,51,28,30.42,30.25,15,2,15,0.00
2013-4-22,74,60,41,49,43,35,85,57,34,30.27,30.04,17,2,17,0.00
2013-4-23,74,65,56,61,55,46,80,69,60,30.08,29.85,19,4,19,0.00
2013-4-24,68,45,36,58,40,34,96,83,57,30.30,29.86,18,2,18,0.39
2013-4-25,66,50,32,43,38,31,97,69,36,30.39,30.29,12,2,12,0.01
2013-4-26,52,50,44,50,45,40,96,85,68,30.45,30.27,15,1,15,0.53
2013-4-27,60,55,50,58,54,48,98,96,90,30.32,29.90,14,2,14,0.92
2013-4-28,59,57,51,58,54,50,98,91,83,29.97,29.88,11,2,11,0.00
2013-4-29,76,61,48,59,54,47,98,80,51,30.02,29.88,10,1,10,0.00
2013-4-30,84,69,54,59,55,52,96,65,34,29.99,29.90,10,2,10,0.00
2013-5-1,82,70,56,67,59,53,91,69,48,30.08,29.98,12,1,12,0.00
2013-5-2,74,67,58,62,59,56,95,77,55,30.14,30.02,14,1,14,0.15
2013-5-3,74,61,43,62,55,42,97,83,59,30.02,29.75,23,4,23,0.64
2013-5-4,55,46,41,43,41,38,96,83,58,29.99,29.86,8,1,8,0.46
2013-5-5,60,51,41,54,48,40,97,89,75,29.97,29.83,8,2,8,0.00
2013-5-6,65,57,53,58,54,51,97,91,75,29.93,29.82,15,2,15,0.06
2013-5-7,74,61,49,62,56,48,99,85,55,30.01,29.92,9,1,9,0.01
2013-5-8,81,68,52,62,56,51,98,71,39,30.05,29.96,11,1,11,0.00
2013-5-9,81,71,58,64,60,56,95,70,50,30.04,29.91,18,2,18,0.00
2013-5-10,76,67,62,66,63,58,97,86,66,29.96,29.82,13,2,13,0.40
2013-5-11,73,61,54,58,52,37,92,73,47,30.12,29.95,20,2,20,0.01
2013-5-12,64,53,40,42,36,29,90,57,29,30.22,30.12,14,2,14,0.00
2013-5-13,71,56,38,46,39,31,97,61,29,30.27,30.13,10,1,10,0.00
2013-5-14,85,71,53,62,55,43,76,58,41,30.13,29.92,19,4,19,0.00
2013-5-15,84,75,67,63,58,53,69,56,41,30.04,29.91,18,4,18,0.00
2013-5-16,72,69,66,64,63,61,85,82,77,29.94,29.91,3,0,3,0.00
2013-5-17,73,67,64,67,64,60,96,89,80,29.99,29.91,13,2,13,0.17
2013-5-18,84,72,66,69,66,65,98,83,57,30.00,29.91,6,0,6,0.00
2013-5-19,88,79,69,76,70,66,97,77,53,29.93,29.83,18,2,18,0.00
2013-5-20,87,79,70,73,70,68,92,77,59,29.95,29.80,14,2,14,0.00
2013-5-21,80,71,65,70,66,63,96,85,66,29.93,29.78,32,3,32,0.97
2013-5-23,74,67,57,60,56,50,79,68,55,30.16,30.00,19,5,19,0.00
2013-5-24,71,59,48,50,47,40,92,66,34,30.36,30.16,11,2,11,0.00
2013-5-25,76,62,45,56,50,44,97,68,38,30.35,30.15,10,1,10,0.00
2013-5-26,84,71,58,62,58,54,91,67,42,30.21,30.07,9,1,9,0.00
2013-5-27,84,74,59,69,61,56,89,66,47,30.08,29.91,18,2,18,0.00
2013-5-28,87,78,68,70,65,58,81,65,48,30.02,29.92,19,3,19,0.00
2013-5-29,88,77,64,68,63,57,81,63,46,30.06,29.92,17,2,17,0.00
2013-5-30,86,78,68,71,68,66,95,73,56,30.02,29.90,20,3,20,0.13
2013-5-31,82,75,68,74,70,66,97,87,76,29.98,29.84,16,2,16,0.31
2013-6-1,78,68,63,72,66,62,97,91,68,29.98,29.75,20,3,20,5.80
2013-6-2,77,70,61,65,63,59,98,80,60,29.98,29.89,10,2,10,0.00
2013-6-3,75,66,58,62,58,55,96,77,54,30.07,29.95,11,1,11,0.00
2013-6-4,81,68,54,63,59,52,94,73,50,30.07,29.96,8,1,8,0.00
2013-6-5,86,75,64,68,64,61,93,70,47,29.98,29.80,9,1,9,0.81
2013-6-6,83,73,65,69,66,63,97,80,54,29.84,29.75,10,1,10,1.07
2013-6-7,79,72,63,66,63,60,95,75,54,29.88,29.77,11,2,11,0.00
2013-6-8,82,70,58,65,60,54,98,73,40,30.00,29.87,13,1,13,0.00
2013-6-9,79,70,63,72,66,59,97,87,77,30.00,29.81,15,1,15,0.12
2013-6-10,84,73,65,71,66,63,97,82,54,29.92,29.82,16,2,16,0.05
2013-6-11,93,79,61,76,70,60,98,75,52,30.00,29.89,13,1,13,0.00
2013-6-12,93,85,75,78,74,70,87,70,48,30.00,29.81,20,3,20,0.00
2013-6-13,83,78,65,74,68,62,91,72,57,29.95,29.79,18,4,18,0.00
2013-6-14,84,72,58,64,60,57,97,71,46,30.06,29.94,12,1,12,0.00
2013-6-15,88,75,60,68,64,58,97,70,42,30.10,29.96,10,1,10,0.00
2013-6-16,88,78,69,75,70,66,91,77,59,30.02,29.92,11,1,11,0.00
2013-6-17,88,78,71,75,72,69,96,83,61,29.95,29.85,13,1,13,0.24
2013-6-18,87,80,68,72,68,64,92,69,54,29.99,29.89,15,2,15,0.15
2013-6-19,86,72,65,72,67,64,96,85,57,30.04,29.94,8,1,8,0.07
2013-6-20,92,79,66,73,70,65,97,76,45,30.12,30.03,7,1,7,0.00
2013-6-21,90,81,71,74,71,68,92,73,53,30.16,30.06,9,1,9,0.00
2013-6-22,90,80,70,75,70,66,93,73,51,30.14,30.03,19,1,19,0.00
2013-6-23,90,80,71,72,69,66,89,71,49,30.10,29.99,12,1,12,0.00
2013-6-24,89,79,73,76,72,69,93,80,59,30.11,30.00,15,2,16,0.00
2013-6-25,91,83,75,77,74,72,93,76,58,30.04,29.88,12,2,12,0.00
2013-6-26,91,82,73,76,73,69,96,75,57,29.94,29.73,23,3,23,0.89
2013-6-27,94,87,73,79,73,68,96,65,45,29.88,29.78,13,2,13,1.70
2013-6-28,90,80,71,75,68,60,94,70,42,29.83,29.66,14,2,14,0.00
2013-6-29,85,74,64,67,63,60,92,69,46,29.70,29.61,34,3,34,0.00
2013-6-30,75,67,61,70,64,60,97,92,74,29.82,29.68,9,1,9,0.08
2013-7-1,73,68,65,67,65,64,97,92,78,29.89,29.79,14,1,14,0.02
2013-7-2,76,68,61,68,64,60,98,88,71,30.03,29.86,14,2,14,0.02
2013-7-3,82,69,61,67,63,60,98,83,53,30.11,30.01,7,1,7,0.00
2013-7-4,82,72,63,72,67,62,97,85,67,30.07,30.00,12,2,12,0.00
2013-7-5,82,74,69,72,68,67,94,84,63,30.09,30.00,9,1,9,0.00
2013-7-6,85,74,65,72,69,64,96,85,60,30.08,29.96,10,2,10,0.67
2013-7-7,90,76,63,75,69,63,98,81,51,30.09,30.02,8,1,8,0.01
2013-7-8,91,80,69,77,73,68,98,80,55,30.13,30.03,6,1,6,0.00
2013-7-9,92,83,73,78,74,72,95,76,57,30.09,29.96,12,1,12,0.00
2013-7-10,90,83,76,78,74,70,92,77,57,29.99,29.87,11,2,11,0.00
2013-7-11,84,77,64,76,69,60,97,78,52,30.00,29.91,13,2,13,0.00
2013-7-12,84,73,62,64,61,57,92,69,44,30.06,29.99,14,2,14,0.00
2013-7-13,85,74,60,68,63,59,97,72,44,30.05,29.98,13,1,13,0.00
2013-7-14,87,76,67,77,71,64,97,85,60,30.12,30.01,15,1,15,0.23
2013-7-15,88,80,73,77,74,71,97,82,62,30.22,30.11,12,2,12,0.01
2013-7-16,92,83,69,76,73,68,98,73,53,30.30,30.22,6,1,10,0.00
2013-7-17,94,84,72,78,74,71,98,76,50,30.30,30.16,9,1,9,0.00
2013-7-18,91,82,74,79,75,72,98,81,56,30.19,30.03,12,1,12,0.00
2013-7-19,90,82,70,76,73,69,97,77,57,30.06,29.91,12,2,12,0.00
2013-7-20,91,80,71,76,73,68,96,79,57,29.96,29.81,17,2,17,0.08
2013-7-21,90,75,69,77,71,68,98,90,63,29.95,29.85,21,1,21,0.61
2013-7-22,86,77,71,77,73,70,98,88,68,29.88,29.80,13,2,13,0.84
2013-7-23,89,79,69,77,73,67,97,82,64,29.91,29.76,20,3,20,0.13
2013-7-24,82,73,64,70,66,61,98,80,57,29.98,29.82,13,2,13,0.00
2013-7-25,81,70,60,65,62,58,97,76,47,30.07,29.97,12,1,12,0.00
2013-7-26,81,71,58,68,63,57,98,79,52,30.07,29.96,8,1,8,0.00
2013-7-27,83,73,62,71,66,57,96,81,56,29.99,29.88,13,1,13,0.05
2013-7-28,78,68,53,63,57,51,97,71,44,30.07,29.98,9,1,9,0.00
2013-7-29,79,70,57,65,62,56,97,78,55,30.17,30.06,5,1,8,0.00
2013-7-30,73,69,65,71,67,63,97,92,83,30.16,30.03,10,1,10,0.33
2013-7-31,86,76,69,76,72,68,98,88,68,30.03,29.93,13,1,13,0.00
2013-8-1,86,76,66,73,68,65,97,80,52,30.05,29.97,9,1,9,0.00
2013-8-2,86,74,61,72,67,61,99,80,51,30.04,29.94,10,1,10,0.00
2013-8-3,84,75,70,76,72,67,97,90,76,30.05,29.92,12,1,12,0.28
2013-8-4,83,74,67,72,66,62,98,76,52,30.14,30.04,9,1,9,0.00
2013-8-5,77,70,66,68,65,62,94,85,65,30.09,29.92,8,1,8,0.09
2013-8-6,83,76,70,76,72,68,97,89,74,29.96,29.87,8,1,8,0.00
2013-8-7,86,76,70,78,73,68,97,91,71,29.94,29.84,12,1,12,0.30
2013-8-8,85,77,70,77,74,70,99,92,76,29.95,29.87,8,0,8,0.08
2013-8-9,87,77,71,79,74,70,98,90,70,30.03,29.90,14,1,14,1.73
2013-8-10,84,76,72,75,73,71,98,92,73,30.10,30.01,7,0,7,0.19
2013-8-11,87,79,71,76,73,70,99,85,61,30.11,30.03,5,0,5,0.00
2013-8-12,85,76,71,78,74,70,98,92,76,30.06,29.89,25,1,25,0.96
2013-8-13,83,75,67,73,70,63,98,84,60,30.04,29.91,11,2,11,0.00
2013-8-14,75,66,56,64,56,53,95,72,49,30.14,30.03,14,2,14,0.00
2013-8-15,78,66,55,60,56,52,95,75,49,30.12,30.03,12,1,12,0.00
2013-8-16,78,69,59,66,62,57,93,79,63,30.10,30.04,12,2,12,0.00
2013-8-17,78,69,65,71,66,62,97,90,72,30.14,30.05,9,1,11,1.83
2013-8-18,78,69,64,71,67,63,98,92,76,30.15,30.06,5,0,5,0.09
2013-8-19,85,73,63,73,68,63,99,87,61,30.12,30.02,7,1,7,0.01
2013-8-20,89,76,65,74,71,65,99,84,58,30.10,30.02,7,1,7,0.00
2013-8-21,89,78,67,75,71,66,99,82,55,30.14,30.04,8,1,8,0.00
2013-8-24,87,76,71,72,70,68,92,82,60,30.18,30.12,4,0,4,0.01
2013-8-25,90,77,67,76,72,66,96,84,62,30.26,30.17,8,1,8,0.00
2013-8-26,88,78,70,76,72,68,96,83,61,30.25,30.10,13,1,13,0.00
2013-8-27,87,78,69,76,72,67,95,83,66,30.12,30.01,11,2,11,0.00
2013-8-28,91,80,69,76,72,68,97,79,52,30.05,29.98,10,1,10,0.00
2013-8-29,94,82,71,79,74,69,96,79,52,30.02,29.93,8,1,8,0.00
2013-8-30,93,82,72,78,74,70,98,79,49,29.98,29.85,10,1,10,0.00
2013-8-31,94,84,76,79,76,73,93,79,57,29.88,29.76,10,2,10,0.14
2013-9-1,84,76,70,75,72,68,97,88,72,29.88,29.75,25,2,25,0.62
2013-9-2,87,77,68,78,71,65,98,84,62,29.91,29.82,11,1,11,0.09
2013-9-3,84,73,63,70,65,62,98,80,50,30.05,29.91,9,1,9,0.00
2013-9-4,82,71,61,67,63,60,97,77,51,30.15,30.04,10,1,10,0.00
2013-9-5,84,70,56,70,64,56,99,81,54,30.19,30.11,8,1,8,0.00
2013-9-6,88,75,65,72,68,64,98,80,52,30.16,30.05,11,1,11,0.00
2013-9-7,88,75,63,74,69,62,99,82,55,30.07,29.95,11,1,11,0.00
2013-9-8,88,78,66,77,72,65,98,84,60,29.98,29.90,7,0,7,0.00
2013-9-9,93,82,74,78,75,72,95,79,54,30.00,29.92,10,1,10,0.00
2013-9-10,92,81,74,78,74,71,94,79,53,30.13,30.00,7,1,7,0.00
2013-9-11,93,78,69,78,72,68,98,85,56,30.15,30.04,16,1,16,0.00
2013-9-12,88,78,67,76,72,65,98,82,60,30.04,29.91,10,1,10,0.01
2013-9-13,76,67,54,65,57,51,95,71,49,30.06,29.97,14,2,14,0.00
2013-9-14,74,61,49,54,51,47,97,73,42,30.15,30.05,14,1,14,0.00
2013-9-15,82,64,48,62,56,47,98,77,43,30.11,30.05,12,1,12,0.00
2013-9-16,76,68,61,66,63,59,94,85,72,30.19,30.08,11,1,11,0.00
2013-9-17,82,70,62,67,64,60,95,82,57,30.20,30.08,9,1,9,0.00
2013-9-18,86,74,65,73,69,64,96,86,64,30.12,30.01,12,1,12,0.00
2013-9-19,86,76,70,75,71,68,95,85,67,30.08,29.94,13,1,13,0.00
2013-9-20,80,72,68,73,69,67,98,88,77,29.97,29.82,11,1,11,2.15
2013-9-21,74,64,53,68,56,51,98,76,47,29.91,29.81,16,2,16,0.06
2013-9-22,75,61,49,57,53,48,98,78,47,29.99,29.90,11,1,11,0.00
2013-9-23,76,63,48,61,56,48,98,80,51,30.02,29.93,13,1,13,0.00
2013-9-24,77,66,55,71,63,55,98,91,75,29.96,29.81,10,1,10,0.33
2013-9-25,81,70,61,69,65,60,98,88,60,29.86,29.79,9,1,9,0.00
2013-9-26,83,70,61,69,64,60,99,83,50,30.02,29.86,11,1,11,0.00
2013-9-27,81,67,55,65,60,54,99,80,45,30.12,30.02,10,1,10,0.01
2013-9-28,81,70,58,65,61,58,98,76,46,30.14,30.02,15,1,15,0.00
2013-9-29,68,64,62,63,61,59,98,91,76,30.06,29.98,7,1,7,1.00
2013-9-30,70,66,64,66,64,63,98,94,85,30.01,29.95,9,1,9,0.03
2013-10-1,76,70,64,71,67,63,99,93,82,30.07,29.98,9,1,9,0.00
2013-10-2,81,72,66,73,69,66,99,92,73,30.09,30.01,12,1,12,0.17
2013-10-3,84,74,68,70,68,66,97,81,56,30.05,29.94,12,1,12,0.00
2013-10-4,84,74,67,75,70,66,96,88,72,30.05,29.96,9,1,9,0.01
2013-10-5,82,73,68,74,71,67,98,92,74,30.01,29.84,20,1,20,2.06
2013-10-6,68,60,55,67,58,53,98,95,86,29.91,29.82,16,2,16,1.01
2013-10-7,67,56,44,53,49,43,98,80,56,30.15,29.95,12,1,12,0.00
2013-10-8,71,57,46,53,49,45,98,77,42,30.21,30.11,16,1,16,0.00
2013-10-9,74,55,48,64,52,47,97,90,74,30.18,30.10,5,0,5,0.00
2013-10-10,79,70,59,67,64,58,98,82,59,30.15,30.01,4,1,6,0.00
2013-10-11,81,67,57,66,61,57,98,82,47,30.07,29.97,10,1,10,0.01
2013-10-12,76,66,58,68,63,57,98,89,75,30.13,29.99,7,1,7,0.00
2013-10-13,76,64,52,64,56,48,98,76,45,30.29,30.13,12,1,12,0.01
2013-10-14,74,60,49,62,54,46,91,78,65,30.27,30.09,6,1,9,0.00
2013-10-15,72,66,62,66,64,60,97,92,79,30.09,29.94,12,1,12,0.17
2013-10-16,66,57,49,59,52,48,98,85,71,30.02,29.94,13,1,13,0.06
2013-10-17,53,50,46,52,48,44,98,92,85,30.02,29.96,7,1,7,0.08
2013-10-18,68,56,43,54,49,42,98,81,49,30.08,29.95,11,1,11,0.01
2013-10-19,57,50,42,53,45,40,95,84,56,30.07,29.90,12,2,12,0.13
2013-10-20,65,49,38,47,42,37,97,80,46,30.11,30.00,14,2,14,0.00
2013-10-21,66,54,41,54,47,39,96,80,56,30.05,29.96,13,2,13,0.08
2013-10-22,60,50,36,47,41,35,98,74,44,30.08,29.86,13,1,13,0.01
2013-10-23,53,46,40,44,37,33,91,74,50,30.14,29.91,17,3,17,0.00
2013-10-24,51,43,32,41,35,27,93,74,42,30.41,30.13,15,2,15,0.00
2013-10-25,52,37,26,33,29,25,97,76,41,30.55,30.33,11,1,11,0.00
2013-10-26,58,45,30,46,37,28,94,77,55,30.33,30.06,14,2,14,0.00
2013-10-27,64,52,36,51,43,36,98,76,44,30.13,30.03,6,1,6,0.00
2013-10-28,70,58,49,55,52,48,97,83,58,30.25,30.06,7,0,7,0.00
2013-10-29,64,56,46,62,55,45,99,95,86,30.28,30.10,5,1,8,0.08
2013-10-30,77,69,61,67,63,60,98,84,69,30.14,29.96,16,2,16,0.05
2013-10-31,70,66,58,67,63,56,96,90,79,29.96,29.47,31,5,31,0.61
2013-11-1,67,56,45,56,49,44,98,81,50,29.86,29.66,19,3,19,0.01
2013-11-2,58,47,37,48,42,36,98,84,61,30.21,29.85,19,1,19,0.00
2013-11-3,59,45,31,44,36,30,99,75,43,30.34,30.20,11,1,11,0.00
2013-11-4,61,52,41,49,43,38,90,72,52,30.32,30.22,14,1,14,0.00
2013-11-5,66,58,51,51,47,43,82,66,51,30.34,30.15,12,2,12,0.00
2013-11-6,60,55,42,58,50,40,97,84,62,30.24,30.01,23,3,23,0.39
2013-11-7,54,42,33,40,34,29,93,73,41,30.40,30.24,11,1,11,0.00
2013-11-8,60,43,29,42,33,28,98,73,35,30.42,30.22,11,1,11,0.00
2013-11-9,63,50,37,44,39,33,87,67,44,30.25,30.14,22,2,22,0.00
2013-11-10,61,46,35,46,35,29,98,69,31,30.40,30.24,13,1,13,0.00
2013-11-11,64,49,30,44,35,29,97,64,34,30.33,30.16,23,2,23,0.00
2013-11-12,45,36,28,40,26,20,90,70,45,30.71,30.32,17,6,21,0.00
2013-11-13,47,32,19,26,22,18,95,70,36,30.74,30.44,8,1,8,0.00
2013-11-14,57,40,23,25,21,-100,87,52,24,30.44,30.17,15,-5,15,0.00
2013-11-15,52,47,40,50,38,23,95,72,45,30.18,30.05,11,2,11,0.02
2013-11-16,66,60,52,63,56,50,93,89,82,30.05,29.80,19,5,19,0.00
2013-11-17,68,64,55,64,52,31,93,69,34,29.95,29.69,28,7,28,0.82
2013-11-18,60,49,33,43,35,28,90,60,34,30.29,29.95,12,2,16,0.00
2013-11-19,48,40,32,33,30,29,92,70,48,30.35,30.22,12,2,12,0.00
2013-11-20,59,45,29,38,33,27,94,67,43,30.24,30.11,14,1,14,0.00
2013-11-21,64,55,48,56,48,37,94,78,60,30.24,30.15,13,2,13,0.19
2013-11-22,58,50,41,57,48,37,98,93,85,30.44,30.16,18,4,18,0.35
2013-11-23,44,36,24,37,26,14,91,68,32,30.67,30.42,21,6,21,0.00
2013-11-24,33,26,18,18,15,12,80,63,46,30.75,30.50,19,3,19,0.00
2013-11-25,39,33,28,32,24,17,94,69,47,30.50,30.21,11,2,11,0.00
2013-11-26,39,35,31,34,31,19,95,84,64,30.21,30.00,24,3,24,0.09
2013-11-27,31,24,16,20,13,10,87,63,42,30.41,30.14,21,3,21,0.00
2013-11-28,44,28,15,23,18,12,93,68,42,30.51,30.35,17,2,17,0.00
2013-11-29,54,35,20,33,26,18,95,73,41,30.61,30.46,9,1,9,0.00
2013-11-30,58,44,29,32,28,25,87,56,30,30.46,30.21,15,2,15,0.00
2013-12-1,57,48,41,42,36,29,88,65,52,30.21,29.93,9,1,9,0.00
2013-12-2,61,50,39,49,44,37,95,82,64,29.93,29.72,9,1,9,0.00
2013-12-3,65,54,44,54,50,43,98,88,63,29.78,29.70,12,1,12,0.00
2013-12-4,74,65,53,63,60,52,98,83,63,29.79,29.65,20,4,20,0.00
2013-12-5,68,42,30,63,38,28,94,87,79,30.24,29.78,21,5,21,0.27
2013-12-6,31,26,22,30,24,19,95,93,89,30.51,30.15,10,3,10,0.04
2013-12-7,25,20,15,20,16,11,89,85,80,30.67,30.42,11,4,11,0.00
2013-12-8,33,28,22,32,27,19,97,94,90,30.42,30.05,10,2,12,0.00
2013-12-9,31,28,24,29,25,18,97,86,73,30.32,30.14,11,2,11,0.00
2013-12-10,34,27,21,24,22,18,92,81,65,30.43,30.26,13,2,13,0.00
2013-12-11,39,28,18,30,22,14,95,81,64,30.65,30.41,14,3,14,0.01
2013-12-12,34,22,10,15,11,7,89,66,34,30.67,30.41,8,1,8,0.00
2013-12-13,42,31,15,33,23,13,93,73,48,30.41,30.00,12,1,12,0.18
2013-12-14,38,36,32,38,34,30,97,93,87,30.12,29.82,14,3,14,0.94
2013-12-15,32,31,30,29,27,25,92,86,81,30.27,30.11,13,3,13,0.00
2013-12-16,52,42,31,40,35,29,91,77,59,30.17,30.06,15,3,15,0.00
2013-12-17,45,36,27,37,32,25,95,84,63,30.31,30.09,10,1,10,0.00
2013-12-18,53,40,21,32,25,18,96,60,30,30.37,30.10,14,3,14,0.00
2013-12-19,60,54,44,51,44,32,79,70,59,30.13,29.93,21,5,21,0.00
2013-12-20,66,62,57,62,58,50,95,86,73,29.93,29.79,15,5,19,0.16
2013-12-21,66,56,41,63,55,40,99,96,86,29.80,29.46,22,4,22,2.73
2013-12-22,49,42,35,48,40,31,99,93,85,30.24,29.64,13,4,13,0.01
2013-12-23,35,31,26,32,26,20,90,81,73,30.53,30.24,13,3,13,0.00
2013-12-24,28,22,17,21,14,9,85,72,47,30.67,30.46,13,2,13,0.00
2013-12-25,43,31,18,30,23,15,87,70,52,30.46,30.31,8,2,12,0.00
2013-12-26,45,33,22,31,27,21,97,80,50,30.47,30.34,7,1,7,0.00
2013-12-27,53,36,22,36,29,20,96,78,50,30.49,30.36,10,1,10,0.00
2013-12-28,49,39,28,38,32,26,95,78,51,30.36,30.00,6,1,6,0.05
2013-12-29,50,38,27,42,35,22,97,87,71,30.24,29.94,15,3,15,0.15
2013-12-30,30,25,20,22,18,16,90,77,58,30.35,30.23,10,2,10,0.00
2013-12-31,44,30,18,26,22,16,93,75,47,30.49,30.32,10,1,10,0.00
2014-1-1,51,38,24,37,30,22,95,74,47,30.32,29.97,9,2,11,0.02
2014-1-2,41,26,17,39,21,12,95,81,69,30.48,29.92,25,5,25,0.01